createdAt,value
2022-12-07T00:18:22.324Z,4.63
2022-12-07T00:20:50.198Z,4.61
2022-12-07T00:23:19.052Z,4.57
2022-12-07T00:25:46.784Z,4.39
2022-12-07T00:28:15.067Z,4.48
2022-12-07T00:30:43.033Z,4.47
2022-12-07T00:33:11.903Z,4.47
2022-12-07T00:35:39.733Z,4.41
2022-12-07T00:38:08.868Z,4.29
2022-12-07T00:40:36.336Z,4.33
2022-12-07T00:43:04.184Z,4.46
2022-12-07T00:45:32.018Z,4.22
2022-12-07T00:47:59.690Z,4.48
2022-12-07T00:50:28.491Z,4.51
2022-12-07T00:52:56.118Z,4.55
2022-12-07T00:55:23.981Z,4.43
2022-12-07T00:57:52.849Z,4.58
2022-12-07T01:00:20.293Z,4.20
2022-12-07T01:02:49.595Z,4.15
2022-12-07T01:05:17.784Z,4.25
2022-12-07T01:07:45.471Z,4.31
2022-12-07T01:10:14.266Z,4.18
2022-12-07T01:12:42.250Z,4.21
2022-12-07T01:15:10.403Z,4.21
2022-12-07T01:17:38.842Z,4.34
2022-12-07T01:20:07.340Z,4.34
2022-12-07T01:22:39.654Z,4.58
2022-12-07T01:25:08.992Z,4.60
2022-12-07T01:27:37.272Z,4.61
2022-12-07T01:30:07.388Z,4.31
2022-12-07T01:32:35.958Z,4.15
2022-12-07T01:35:03.708Z,4.08
2022-12-07T01:37:36.951Z,4.06
2022-12-07T01:40:07.785Z,4.05
2022-12-07T01:42:36.634Z,4.03
2022-12-07T01:45:38.809Z,3.99
2022-12-07T01:48:07.628Z,4.12
2022-12-07T01:50:36.681Z,3.97
2022-12-07T01:53:07.848Z,4.11
2022-12-07T01:55:36.457Z,4.20
2022-12-07T01:58:04.865Z,4.42
2022-12-07T02:00:32.383Z,4.19
2022-12-07T02:03:17.935Z,4.30
2022-12-07T02:05:46.370Z,4.12
2022-12-07T02:08:15.038Z,4.28
2022-12-07T02:10:42.802Z,4.35
2022-12-07T02:13:25.108Z,4.39
2022-12-07T02:16:05.285Z,4.52
2022-12-07T02:18:39.881Z,4.55
2022-12-07T02:21:18.092Z,4.81
2022-12-07T02:23:48.458Z,4.60
2022-12-07T02:26:34.153Z,4.65
2022-12-07T02:29:19.331Z,4.56
2022-12-07T02:32:10.534Z,4.59
2022-12-07T02:35:10.286Z,4.66
2022-12-07T02:37:59.837Z,4.67
2022-12-07T02:40:36.820Z,4.73
2022-12-07T02:43:09.808Z,4.79
2022-12-07T02:45:40.888Z,4.81
2022-12-07T02:48:11.604Z,4.88
2022-12-07T02:50:39.284Z,4.94
2022-12-07T02:53:07.328Z,4.77
2022-12-07T02:55:41.585Z,4.86
2022-12-07T02:58:28.521Z,4.88
2022-12-07T03:01:10.630Z,4.91
2022-12-07T03:03:38.667Z,5.01
2022-12-07T03:06:09.926Z,5.04
2022-12-07T03:08:56.206Z,5.08
2022-12-07T03:11:32.161Z,5.11
2022-12-07T03:14:16.384Z,5.16
2022-12-07T03:16:49.125Z,5.18
2022-12-07T03:19:19.578Z,5.12
2022-12-07T03:21:56.707Z,5.20
2022-12-07T03:24:32.678Z,5.48
2022-12-07T03:27:11.056Z,5.83
2022-12-07T03:29:43.701Z,5.70
2022-12-07T03:32:24.793Z,5.66
2022-12-07T03:35:03.719Z,5.35
2022-12-07T03:37:42.778Z,5.38
2022-12-07T03:40:23.842Z,5.30
2022-12-07T03:42:52.679Z,5.34
2022-12-07T03:45:24.379Z,5.49
2022-12-07T03:48:05.972Z,5.81
2022-12-07T03:50:41.781Z,5.56
2022-12-07T03:53:15.736Z,5.47
2022-12-07T03:55:49.454Z,5.46
2022-12-07T03:58:20.638Z,5.71
2022-12-07T04:00:48.639Z,5.92
2022-12-07T04:03:17.109Z,6.11
2022-12-07T04:05:45.733Z,5.59
2022-12-07T04:08:13.932Z,5.53
2022-12-07T04:10:41.801Z,5.63
2022-12-07T04:13:09.443Z,5.53
2022-12-07T04:15:37.103Z,5.55
2022-12-07T04:18:05.717Z,5.56
2022-12-07T04:20:34.273Z,5.63
2022-12-07T04:23:04.489Z,6.05
2022-12-07T04:25:32.321Z,6.02
2022-12-07T04:28:00.715Z,6.22
2022-12-07T04:30:28.303Z,6.19
2022-12-07T04:32:58.570Z,6.23
2022-12-07T04:35:26.505Z,6.01
2022-12-07T04:37:54.008Z,5.98
2022-12-07T04:40:21.781Z,5.95
2022-12-07T04:42:50.677Z,5.94
2022-12-07T04:45:36.884Z,6.05
2022-12-07T04:48:25.212Z,5.95
2022-12-07T04:51:11.112Z,5.94
2022-12-07T04:53:59.033Z,5.89
2022-12-07T04:56:27.785Z,5.97
2022-12-07T04:58:55.946Z,6.13
2022-12-07T05:01:24.836Z,6.06
2022-12-07T05:03:53.205Z,6.07
2022-12-07T05:06:21.401Z,6.12
2022-12-07T05:08:49.272Z,6.09
2022-12-07T05:11:36.284Z,6.14
2022-12-07T05:14:16.387Z,5.97
2022-12-07T05:16:46.670Z,6.21
2022-12-07T05:19:15.096Z,6.14
2022-12-07T05:21:44.243Z,6.07
2022-12-07T05:24:16.267Z,6.20
2022-12-07T05:26:45.391Z,6.54
2022-12-07T05:29:15.377Z,6.53
2022-12-07T05:31:48.559Z,6.53
2022-12-07T05:34:18.525Z,6.33
2022-12-07T05:36:48.502Z,6.38
2022-12-07T05:39:18.073Z,6.24
2022-12-07T05:42:07.272Z,6.32
2022-12-07T05:44:40.632Z,6.54
2022-12-07T05:47:10.264Z,6.56
2022-12-07T05:49:38.834Z,6.43
2022-12-07T05:52:09.050Z,6.49
2022-12-07T05:54:39.095Z,6.52
2022-12-07T05:57:06.824Z,6.37
2022-12-07T05:59:35.734Z,6.38
2022-12-07T06:02:05.164Z,6.55
2022-12-07T06:04:38.099Z,6.93
2022-12-07T06:07:07.223Z,6.58
2022-12-07T06:09:37.413Z,6.60
2022-12-07T06:12:25.948Z,6.66
2022-12-07T06:15:20.222Z,6.72
2022-12-07T06:17:50.183Z,6.66
2022-12-07T06:20:18.561Z,6.79
2022-12-07T06:22:47.301Z,6.75
2022-12-07T06:25:16.278Z,6.71
2022-12-07T06:27:49.314Z,6.75
2022-12-07T06:30:18.767Z,6.74
2022-12-07T06:32:46.521Z,6.67
2022-12-07T06:35:15.835Z,6.81
2022-12-07T06:37:48.374Z,6.78
2022-12-07T06:40:17.710Z,6.80
2022-12-07T06:42:46.211Z,6.70
2022-12-07T06:45:14.386Z,6.75
2022-12-07T06:47:44.590Z,6.77
2022-12-07T06:50:15.840Z,6.77
2022-12-07T06:52:45.467Z,6.82
2022-12-07T06:55:14.774Z,6.85
2022-12-07T06:57:44.261Z,6.89
2022-12-07T07:00:21.853Z,6.89
2022-12-07T07:02:52.208Z,6.82
2022-12-07T07:05:22.901Z,6.86
2022-12-07T07:08:20.933Z,6.91
2022-12-07T07:10:42.263Z,6.87
2022-12-07T07:13:10.145Z,6.95
2022-12-07T07:15:44.236Z,6.99
2022-12-07T07:18:14.458Z,6.99
2022-12-07T07:20:42.468Z,7.06
2022-12-07T07:23:10.539Z,7.10
2022-12-07T07:25:40.757Z,7.02
2022-12-07T07:28:10.063Z,7.00
2022-12-07T07:30:46.795Z,7.12
2022-12-07T07:33:17.724Z,7.10
2022-12-07T07:35:46.336Z,7.05
2022-12-07T07:38:18.634Z,7.23
2022-12-07T07:40:46.749Z,7.18
2022-12-07T07:43:14.826Z,7.22
2022-12-07T07:45:43.251Z,7.26
2022-12-07T07:48:13.440Z,7.29
2022-12-07T07:50:41.659Z,7.35
2022-12-07T07:53:11.802Z,7.37
2022-12-07T07:55:39.685Z,7.48
2022-12-07T07:58:08.354Z,7.45
2022-12-07T08:00:46.447Z,7.40
2022-12-07T08:03:17.242Z,7.52
2022-12-07T08:05:46.672Z,7.72
2022-12-07T08:08:15.439Z,7.57
2022-12-07T08:10:43.107Z,8.00
2022-12-07T08:13:17.312Z,7.96
2022-12-07T08:15:48.826Z,7.83
2022-12-07T08:18:19.583Z,7.71
2022-12-07T08:20:49.334Z,7.69
2022-12-07T08:23:31.514Z,7.73
2022-12-07T08:26:16.287Z,7.98
2022-12-07T08:28:45.241Z,8.23
2022-12-07T08:31:22.296Z,8.19
2022-12-07T08:33:50.906Z,8.31
2022-12-07T08:36:19.986Z,8.42
2022-12-07T08:39:07.766Z,8.37
2022-12-07T08:41:36.149Z,8.41
2022-12-07T08:44:07.564Z,8.61
2022-12-07T08:46:42.499Z,8.50
2022-12-07T08:49:17.227Z,8.41
2022-12-07T08:51:46.461Z,8.56
2022-12-07T08:54:17.713Z,8.69
2022-12-07T08:56:47.484Z,8.76
2022-12-07T08:59:20.695Z,8.63
2022-12-07T09:01:52.463Z,8.68
2022-12-07T09:04:25.671Z,9.12
2022-12-07T09:07:02.414Z,8.98
2022-12-07T09:09:31.222Z,8.98
2022-12-07T09:11:58.810Z,8.79
2022-12-07T09:14:28.205Z,8.84
2022-12-07T09:17:10.385Z,8.86
2022-12-07T09:19:40.190Z,8.86
2022-12-07T09:22:10.440Z,9.02
2022-12-07T09:24:38.373Z,8.75
2022-12-07T09:27:07.345Z,8.85
2022-12-07T09:29:36.309Z,9.00
2022-12-07T09:32:09.902Z,8.94
2022-12-07T09:34:39.819Z,9.16
2022-12-07T09:37:10.785Z,9.09
2022-12-07T09:39:44.607Z,9.27
2022-12-07T09:42:37.852Z,9.42
2022-12-07T09:45:11.458Z,9.11
2022-12-07T09:47:39.300Z,9.39
2022-12-07T09:50:18.186Z,9.23
2022-12-07T09:52:49.254Z,9.18
2022-12-07T09:55:24.890Z,9.17
2022-12-07T09:57:53.800Z,9.14
2022-12-07T10:00:24.648Z,9.29
2022-12-07T10:02:59.160Z,9.18
2022-12-07T10:05:38.460Z,8.92
2022-12-07T10:08:15.285Z,8.89
2022-12-07T10:10:51.807Z,9.19
2022-12-07T10:13:23.104Z,9.52
2022-12-07T10:15:55.135Z,9.45
2022-12-07T10:18:38.820Z,9.39
2022-12-07T10:21:12.373Z,9.48
2022-12-07T10:23:43.985Z,9.65
2022-12-07T10:26:30.364Z,9.74
2022-12-07T10:29:04.312Z,9.70
2022-12-07T10:31:33.568Z,9.49
2022-12-07T10:34:04.564Z,9.69
2022-12-07T10:36:33.446Z,9.95
2022-12-07T10:39:06.211Z,9.39
2022-12-07T10:41:34.495Z,9.71
2022-12-07T10:44:05.404Z,9.98
2022-12-07T10:46:54.265Z,10.16
2022-12-07T10:49:43.115Z,9.86
2022-12-07T10:52:21.135Z,10.16
2022-12-07T10:54:59.966Z,9.94
2022-12-07T10:57:46.650Z,10.01
2022-12-07T11:00:25.795Z,9.98
2022-12-07T11:03:08.208Z,9.86
2022-12-07T11:05:49.156Z,10.16
2022-12-07T11:08:19.508Z,10.03
2022-12-07T11:10:56.901Z,10.27
2022-12-07T11:13:41.276Z,10.23
2022-12-07T11:16:26.477Z,10.22
2022-12-07T11:22:26.256Z,10.35
2022-12-07T11:25:25.609Z,10.15
2022-12-07T11:28:12.272Z,10.21
2022-12-07T11:30:50.582Z,9.97
2022-12-07T11:33:39.841Z,10.14
2022-12-07T11:36:35.862Z,10.07
2022-12-07T11:39:31.430Z,10.29
2022-12-07T11:42:08.201Z,10.28
2022-12-07T11:44:42.578Z,10.13
2022-12-07T11:47:16.588Z,9.94
2022-12-07T11:49:54.579Z,10.10
2022-12-07T11:53:14.401Z,10.39
2022-12-07T11:55:54.786Z,10.00
2022-12-07T11:58:41.523Z,10.43
2022-12-07T12:01:18.584Z,10.37
2022-12-07T12:04:07.030Z,10.41
2022-12-07T12:06:36.515Z,10.32
2022-12-07T12:15:38.079Z,10.40
2022-12-07T12:18:17.758Z,10.36
2022-12-07T12:21:29.175Z,10.65
2022-12-07T12:24:04.293Z,10.53
2022-12-07T12:26:38.268Z,10.37
2022-12-07T12:29:24.405Z,10.39
2022-12-07T12:32:17.879Z,10.49
2022-12-07T12:34:59.981Z,10.79
2022-12-07T12:37:35.596Z,10.40
2022-12-07T12:40:17.402Z,10.51
2022-12-07T12:42:50.172Z,10.44
2022-12-07T12:45:31.413Z,10.60
2022-12-07T12:48:29.328Z,10.66
2022-12-07T12:51:41.285Z,10.61
2022-12-07T12:54:25.176Z,10.65
2022-12-07T12:57:08.897Z,10.63
2022-12-07T12:59:39.902Z,10.69
2022-12-07T13:02:24.378Z,10.90
2022-12-07T13:04:57.295Z,10.40
2022-12-07T13:10:38.428Z,10.50
2022-12-07T13:13:21.474Z,10.19
2022-12-07T13:16:18.266Z,10.11
2022-12-07T13:18:46.489Z,10.06
2022-12-07T13:21:15.709Z,9.75
2022-12-07T13:23:51.236Z,9.59
2022-12-07T13:26:22.153Z,9.73
2022-12-07T13:29:14.988Z,9.96
2022-12-07T13:31:53.923Z,9.65
2022-12-07T13:34:31.494Z,9.74
2022-12-07T13:37:10.188Z,9.71
2022-12-07T13:39:59.619Z,9.60
2022-12-07T13:45:49.680Z,9.64
2022-12-07T13:48:32.175Z,9.65
2022-12-07T13:51:04.297Z,9.59
2022-12-07T13:53:35.203Z,9.68
2022-12-07T13:56:05.908Z,9.74
2022-12-07T13:58:38.437Z,9.73
2022-12-07T14:01:07.171Z,9.61
2022-12-07T14:03:38.202Z,9.44
2022-12-07T14:06:19.507Z,9.52
2022-12-07T14:08:55.847Z,9.55
2022-12-07T14:11:37.191Z,9.58
2022-12-07T14:14:31.689Z,9.21
2022-12-07T14:17:21.222Z,9.50
2022-12-07T14:20:02.376Z,9.40
2022-12-07T14:22:39.283Z,9.49
2022-12-07T14:25:14.605Z,9.46
2022-12-07T14:28:01.677Z,9.55
2022-12-07T14:30:35.363Z,9.53
2022-12-07T14:33:09.662Z,9.65
2022-12-07T14:35:45.801Z,9.53
2022-12-07T14:38:16.061Z,9.52
2022-12-07T14:40:44.216Z,9.45
2022-12-07T14:43:14.416Z,9.54
2022-12-07T14:45:42.488Z,9.57
2022-12-07T14:53:57.214Z,9.51
2022-12-07T14:56:30.413Z,9.47
2022-12-07T14:59:02.660Z,9.29
2022-12-07T15:01:30.235Z,9.28
2022-12-07T15:03:58.015Z,9.31
2022-12-07T15:06:37.249Z,9.30
2022-12-07T15:09:12.204Z,9.10
2022-12-07T15:11:46.496Z,9.12
2022-12-07T15:14:15.891Z,9.15
2022-12-07T15:17:08.086Z,8.91
2022-12-07T15:19:38.292Z,9.02
2022-12-07T15:22:14.181Z,8.92
2022-12-07T15:24:45.841Z,8.70
2022-12-07T15:27:17.175Z,8.77
2022-12-07T15:29:52.185Z,8.80
2022-12-07T15:32:22.137Z,8.67
2022-12-07T15:35:00.326Z,8.71
2022-12-07T15:37:30.332Z,8.65
2022-12-07T15:40:07.695Z,8.37
2022-12-07T15:42:42.583Z,8.53
2022-12-07T15:45:12.224Z,8.37
2022-12-07T15:48:26.057Z,8.06
2022-12-07T15:50:37.068Z,7.81
2022-12-07T15:53:10.357Z,7.84
2022-12-07T15:55:44.389Z,7.76
2022-12-07T15:58:17.163Z,7.80
2022-12-07T16:00:47.150Z,7.72
2022-12-07T16:03:20.075Z,7.73
2022-12-07T16:05:55.219Z,7.66
2022-12-07T16:08:36.900Z,7.59
2022-12-07T16:11:13.272Z,7.46
2022-12-07T16:13:43.341Z,7.53
2022-12-07T16:16:20.419Z,7.49
2022-12-07T16:21:34.153Z,7.38
2022-12-07T16:24:08.995Z,7.26
2022-12-07T16:26:37.825Z,7.09
2022-12-07T16:29:06.273Z,7.08
2022-12-07T16:31:35.379Z,7.06
2022-12-07T16:34:05.396Z,7.03
2022-12-07T16:37:02.483Z,6.93
2022-12-07T16:39:26.260Z,6.93
2022-12-07T16:42:00.821Z,6.85
2022-12-07T16:44:30.226Z,6.80
2022-12-07T16:47:00.350Z,6.67
2022-12-07T16:49:33.347Z,6.47
2022-12-07T16:52:21.069Z,6.48
2022-12-07T16:54:54.556Z,6.53
2022-12-07T16:57:33.426Z,6.40
2022-12-07T17:00:06.441Z,6.37
2022-12-07T17:02:37.006Z,6.30
2022-12-07T17:05:09.641Z,6.17
2022-12-07T17:07:40.458Z,6.32
2022-12-07T17:10:10.416Z,6.07
2022-12-07T17:12:39.398Z,6.07
2022-12-07T17:15:20.329Z,6.09
2022-12-07T17:18:05.448Z,6.05
2022-12-07T17:20:42.195Z,5.98
2022-12-07T17:23:15.173Z,5.84
2022-12-07T17:25:47.216Z,5.61
2022-12-07T17:28:17.397Z,5.57
2022-12-07T17:33:21.079Z,5.43
2022-12-07T17:35:55.930Z,5.37
2022-12-07T17:38:35.163Z,5.42
2022-12-07T17:41:35.237Z,5.46
2022-12-07T17:44:06.681Z,5.28
2022-12-07T17:46:43.179Z,5.25
2022-12-07T17:49:15.157Z,5.16
2022-12-07T17:51:53.122Z,5.13
2022-12-07T17:54:22.160Z,5.14
2022-12-07T17:56:59.197Z,5.18
2022-12-07T17:59:35.427Z,5.08
2022-12-07T18:02:05.192Z,4.99
2022-12-07T18:04:34.302Z,5.20
2022-12-07T18:07:07.164Z,5.23
2022-12-07T18:09:43.324Z,5.10
2022-12-07T18:12:19.305Z,5.05
2022-12-07T18:14:56.442Z,4.90
2022-12-07T18:17:33.313Z,4.72
2022-12-07T18:20:04.212Z,4.84
2022-12-07T18:25:08.813Z,4.62
2022-12-07T18:27:42.667Z,4.70
2022-12-07T18:33:02.300Z,4.59
2022-12-07T18:35:38.372Z,4.65
2022-12-07T18:38:15.159Z,4.68
2022-12-07T18:40:47.121Z,4.56
2022-12-07T18:43:19.055Z,4.60
2022-12-07T18:45:56.399Z,4.50
2022-12-07T18:48:30.169Z,4.50
2022-12-07T18:51:03.155Z,4.46
2022-12-07T18:53:34.170Z,4.28
2022-12-07T18:56:11.930Z,4.35
2022-12-07T18:59:04.192Z,4.44
2022-12-07T19:01:38.199Z,4.48
2022-12-07T19:04:08.699Z,4.54
2022-12-07T19:06:44.303Z,4.38
2022-12-07T19:09:17.310Z,4.28
2022-12-07T19:12:01.198Z,4.49
2022-12-07T19:14:38.126Z,4.26
2022-12-07T19:17:12.216Z,4.33
2022-12-07T19:22:25.088Z,4.04
2022-12-07T19:25:04.810Z,4.04
2022-12-07T19:27:41.329Z,4.04
2022-12-07T19:30:11.564Z,4.13
2022-12-07T19:32:44.553Z,3.99
2022-12-07T19:35:16.097Z,3.92
2022-12-07T19:40:20.161Z,4.04
2022-12-07T19:42:50.057Z,3.97
2022-12-07T19:45:19.096Z,3.91
2022-12-07T19:47:56.070Z,3.90
2022-12-07T19:50:26.136Z,3.85
2022-12-07T19:53:04.201Z,3.86
2022-12-07T19:55:44.268Z,3.91
2022-12-07T19:58:17.207Z,3.88
2022-12-07T20:00:55.376Z,4.01
2022-12-07T20:03:25.155Z,3.93
2022-12-07T20:05:53.673Z,3.92
2022-12-07T20:08:23.012Z,3.82
2022-12-07T20:10:57.418Z,3.84
2022-12-07T20:13:35.605Z,3.86
2022-12-07T20:16:18.978Z,3.92
2022-12-07T20:18:57.298Z,3.83
2022-12-07T20:21:32.320Z,3.74
2022-12-07T20:24:07.403Z,3.60
2022-12-07T20:26:42.197Z,3.71
2022-12-07T20:29:24.512Z,3.58
2022-12-07T20:31:55.153Z,3.62
2022-12-07T20:34:26.115Z,3.64
2022-12-07T20:36:57.161Z,3.70
2022-12-07T20:39:29.060Z,3.71
2022-12-07T20:42:17.857Z,3.58
2022-12-07T20:44:47.359Z,3.55
2022-12-07T20:47:17.389Z,3.22
2022-12-07T20:49:46.500Z,3.49
2022-12-07T20:52:15.109Z,3.62
2022-12-07T20:54:47.449Z,3.52
2022-12-07T20:57:16.121Z,3.48
2022-12-07T20:59:47.154Z,3.57
2022-12-07T21:02:17.505Z,3.62
2022-12-07T21:04:51.139Z,3.47
2022-12-07T21:07:21.113Z,3.42
2022-12-07T21:09:51.658Z,3.47
2022-12-07T21:12:19.562Z,3.40
2022-12-07T21:14:48.634Z,3.38
2022-12-07T21:17:17.946Z,3.38
2022-12-07T21:19:52.667Z,3.56
2022-12-07T21:22:24.350Z,3.67
2022-12-07T21:24:53.255Z,3.51
2022-12-07T21:27:34.793Z,3.42
2022-12-07T21:30:08.608Z,3.66
2022-12-07T21:32:37.440Z,3.55
2022-12-07T21:35:06.472Z,3.72
2022-12-07T21:37:35.356Z,3.98
2022-12-07T21:40:16.503Z,3.52
2022-12-07T21:42:48.039Z,3.44
2022-12-07T21:45:16.286Z,3.30
2022-12-07T21:47:45.156Z,3.49
2022-12-07T21:50:16.243Z,3.48
2022-12-07T21:52:49.233Z,3.42
2022-12-07T21:55:19.082Z,3.70
2022-12-07T21:57:47.304Z,3.54
2022-12-07T22:00:18.129Z,3.29
2022-12-07T22:02:49.451Z,3.44
2022-12-07T22:05:17.493Z,3.20
2022-12-07T22:07:45.512Z,3.70
2022-12-07T22:10:27.940Z,3.26
2022-12-07T22:13:00.177Z,3.16
2022-12-07T22:15:30.230Z,2.94
2022-12-07T22:17:58.785Z,3.62
2022-12-07T22:20:26.955Z,3.12
2022-12-07T22:22:55.978Z,3.14
2022-12-07T22:25:23.925Z,3.00
2022-12-07T22:27:51.621Z,3.07
2022-12-07T22:30:19.473Z,3.40
2022-12-07T22:32:49.258Z,2.96
2022-12-07T22:35:17.578Z,3.10
2022-12-07T22:37:45.799Z,3.02
2022-12-07T22:40:14.729Z,3.28
2022-12-07T22:42:42.468Z,3.14
2022-12-07T22:45:10.837Z,3.14
2022-12-07T22:47:39.880Z,3.02
2022-12-07T22:50:08.509Z,3.04
2022-12-07T22:52:37.297Z,3.58
2022-12-07T22:55:05.419Z,3.18
2022-12-07T22:57:33.317Z,2.99
2022-12-07T23:00:02.035Z,3.02
2022-12-07T23:02:32.091Z,2.99
2022-12-07T23:05:00.425Z,3.09
2022-12-07T23:07:30.140Z,3.08
2022-12-07T23:09:58.564Z,2.92
2022-12-07T23:12:45.144Z,2.96
2022-12-07T23:15:12.832Z,2.92
2022-12-07T23:17:40.486Z,3.10
2022-12-07T23:20:10.282Z,3.15
2022-12-07T23:22:38.396Z,3.20
2022-12-07T23:25:06.722Z,3.23
2022-12-07T23:27:35.832Z,3.19
2022-12-07T23:30:05.132Z,3.17
2022-12-07T23:32:32.749Z,3.17
2022-12-07T23:35:00.619Z,3.22
2022-12-07T23:37:28.909Z,3.17
2022-12-07T23:39:56.574Z,3.38
2022-12-07T23:42:24.711Z,3.27
2022-12-07T23:44:52.733Z,3.05
2022-12-07T23:47:20.426Z,3.19
2022-12-07T23:49:49.176Z,3.27
2022-12-07T23:52:16.890Z,3.17
2022-12-07T23:54:44.695Z,3.17
2022-12-07T23:57:12.241Z,3.10
2022-12-07T23:59:40.079Z,3.38
